首页
METAR-TAF:

METAR-TAF

机场 :

開普敦, 南非共和國

开普敦国际机场

纬度: 33-59S, 经度: 018-36E, 海拔: 42米

当前天气观测

该预报发布于53分钟前的06:00 UTC
风速2节,风向多变
温度 12°C
湿度 94%
气压 1011 hPa
能见度10公里或以上
散云层高于4500英尺

METAR: FACT 250600Z VRB02KT 9999 SCT045 12/11 Q1011 NOSIG

时间: 08:53 (06:53 UTC)

预报

该预报发布于2小时和53分钟前的04:00 UTC
预报有效从25日的 06点(UTC)到 26日的 12点(UTC)
风速5节,风向北转东北
能见度10公里或以上
1500米以下无云,无积雨云
成为
从 25日的 06点(UTC)到 25日的 08点(UTC)
风速13节,风向北转西北
从 25日的 1400点(UTC)
风速20节,风向北转西北
能见度10公里或以上
少量云层高于2000英尺
多云层高于4000英尺
几率 40% :
短暂存在
从 25日的 18点(UTC)到 26日的 12点(UTC)
能見度: 4000
多云层高于1500英尺
阵雨
短暂存在
从 26日的 02点(UTC)到 26日的 05点(UTC)
风速20节,风向北转西北,有时为30节阵风

TAF: FACT 250400Z 2506/2612 03005KT CAVOK BECMG 2506/2508 34013KT FM251400 34020KT 9999 FEW020 BKN040 PROB40 TEMPO 2518/2612 4000 SHRA BKN015 TEMPO 2602/2605 34020G30KT TX22/2512Z TN11/2506Z

超过4000个机场的气象观测和天气预报(METAR&TAF报告)。

可查询的气象台以黄色和红色小点在地图上表示。

将鼠标移到小点上方,可查看气象台名称。

然后点击查看天气观测和预报。

如需切换地图:点击带黑十字的绿色按钮放大地图;点击带横线的绿色按钮缩小地图;或者点击绿色箭头查看邻近地区的地图。


METAR-TAF: